createdAt,value
2018-05-29T00:20:48.096Z,67.73
2018-05-29T00:40:30.438Z,69.09
2018-05-29T01:00:14.504Z,72.02
2018-05-29T01:19:58.262Z,74.59
2018-05-29T01:39:41.623Z,75.56
2018-05-29T01:59:24.444Z,74.83
2018-05-29T02:19:07.479Z,74.90
2018-05-29T02:38:50.929Z,75.99
2018-05-29T02:58:33.042Z,75.69
2018-05-29T03:18:15.271Z,74.54
2018-05-29T03:37:58.991Z,72.86
2018-05-29T03:57:42.787Z,71.51
2018-05-29T04:17:25.521Z,69.58
2018-05-29T04:37:07.429Z,64.72
2018-05-29T04:56:51.187Z,60.97
2018-05-29T05:16:34.424Z,58.76
2018-05-29T05:36:17.280Z,56.21
2018-05-29T05:56:00.115Z,52.78
2018-05-29T06:15:43.157Z,49.39
2018-05-29T06:35:26.301Z,46.39
2018-05-29T06:55:08.219Z,45.67
2018-05-29T07:14:52.384Z,42.30
2018-05-29T07:34:35.130Z,42.87
2018-05-29T07:54:18.574Z,43.40
2018-05-29T08:14:00.905Z,42.34
2018-05-29T08:33:43.844Z,42.17
2018-05-29T08:53:27.205Z,41.06
2018-05-29T09:13:10.246Z,39.92
2018-05-29T09:32:53.080Z,40.15
2018-05-29T09:52:36.644Z,37.86
2018-05-29T10:12:19.068Z,37.02
2018-05-29T10:32:02.109Z,34.88
2018-05-29T10:51:45.242Z,33.90
2018-05-29T11:11:27.596Z,33.51
2018-05-29T11:31:10.689Z,27.53
2018-05-29T11:50:53.653Z,25.99
2018-05-29T12:10:37.135Z,25.64
2018-05-29T12:30:19.981Z,24.15
2018-05-29T12:50:02.803Z,25.37
2018-05-29T13:09:46.585Z,23.97
2018-05-29T13:29:29.564Z,22.20
2018-05-29T13:49:12.337Z,21.04
2018-05-29T14:08:54.620Z,20.19
2018-05-29T14:28:39.203Z,20.53
2018-05-29T14:33:59.635Z,21.79
2018-05-29T14:36:27.561Z,22.49
2018-05-29T14:59:03.328Z,17.93
2018-05-29T15:18:44.568Z,22.28
2018-05-29T15:38:27.813Z,33.88
2018-05-29T15:58:11.141Z,42.84
2018-05-29T16:17:53.955Z,68.88
2018-05-29T16:34:53.934Z,68.33
2018-05-29T16:54:44.393Z,73.40
2018-05-29T17:14:28.192Z,75.85
2018-05-29T17:34:11.152Z,76.57
2018-05-29T17:53:54.170Z,79.74
2018-05-29T18:13:36.975Z,75.89
2018-05-29T18:33:19.852Z,77.53
2018-05-29T18:53:05.039Z,81.66
2018-05-29T19:12:48.245Z,78.58
2018-05-29T19:32:32.393Z,83.28
2018-05-29T19:52:14.515Z,81.28
2018-05-29T20:11:57.698Z,83.00
2018-05-29T20:31:40.661Z,83.86
2018-05-29T20:51:23.512Z,84.32
2018-05-29T21:11:06.118Z,87.04
2018-05-29T21:30:48.943Z,88.23
2018-05-29T21:50:32.125Z,88.28
2018-05-29T22:10:13.899Z,87.04
2018-05-29T22:29:56.743Z,87.96
2018-05-29T22:49:40.173Z,90.58
2018-05-29T23:09:23.075Z,89.55
2018-05-29T23:29:05.371Z,88.53
2018-05-29T23:48:48.298Z,87.82
